DHLLM EDHL-EDDH
Flight info
| Callsign | DHLLM |
|---|---|
| Flight time | 0h 23m |
| Altitude | |
| Route | |
| Aircraft | G2CA |
Departure
| Time | 2026-05-07 09:07 |
|---|---|
| Airport | Lübeck Blankensee Airport (EDHL) |
Arrival
| Time | 2026-05-07 09:30 |
|---|---|
| Airport | Hamburg Helmut Schmidt Airport (EDDH) |
| Time | Latitude | Longitude | Altitude | Speed | Heading |
|---|---|---|---|---|---|
| 2026-05-07 09:03 | 53.80637 | 10.70438 | 53 ft | 0 kts | 162° |
| 2026-05-07 09:03 | 53.80622 | 10.70436 | 61 ft | 6 kts | 217° |
| 2026-05-07 09:04 | 53.80581 | 10.70383 | 62 ft | 8 kts | 205° |
| 2026-05-07 09:04 | 53.80531 | 10.70375 | 88 ft | 9 kts | 149° |
| 2026-05-07 09:04 | 53.80481 | 10.70411 | 72 ft | 4 kts | 142° |
| 2026-05-07 09:04 | 53.80449 | 10.70447 | 62 ft | 4 kts | 145° |
| 2026-05-07 09:05 | 53.80430 | 10.70465 | 52 ft | 1 kts | 146° |
| 2026-05-07 09:05 | 53.80425 | 10.70472 | 61 ft | 1 kts | 148° |
| 2026-05-07 09:05 | 53.80389 | 10.70513 | 84 ft | 18 kts | 148° |
| 2026-05-07 09:05 | 53.80325 | 10.70764 | 130 ft | 32 kts | 79° |
| 2026-05-07 09:06 | 53.80390 | 10.71184 | 283 ft | 36 kts | 81° |
| 2026-05-07 09:06 | 53.80486 | 10.71605 | 412 ft | 45 kts | 76° |
| 2026-05-07 09:06 | 53.80574 | 10.72151 | 528 ft | 53 kts | 73° |
| 2026-05-07 09:06 | 53.80708 | 10.72809 | 538 ft | 63 kts | 74° |
| 2026-05-07 09:07 | 53.80922 | 10.73463 | 618 ft | 68 kts | 39° |
| 2026-05-07 09:07 | 53.81395 | 10.73380 | 728 ft | 77 kts | 332° |
| 2026-05-07 09:07 | 53.81783 | 10.72672 | 793 ft | 83 kts | 316° |
| 2026-05-07 09:07 | 53.82057 | 10.71810 | 974 ft | 85 kts | 299° |
| 2026-05-07 09:08 | 53.82279 | 10.70853 | 1056 ft | 91 kts | 294° |
| 2026-05-07 09:08 | 53.82377 | 10.69811 | 1208 ft | 93 kts | 277° |
| 2026-05-07 09:08 | 53.82382 | 10.68676 | 1276 ft | 98 kts | 272° |
| 2026-05-07 09:08 | 53.82320 | 10.67523 | 1329 ft | 101 kts | 269° |
| 2026-05-07 09:09 | 53.82309 | 10.66355 | 1442 ft | 98 kts | 280° |
| 2026-05-07 09:09 | 53.82374 | 10.65231 | 1574 ft | 92 kts | 281° |
| 2026-05-07 09:09 | 53.82459 | 10.64169 | 1615 ft | 91 kts | 279° |
| 2026-05-07 09:09 | 53.82495 | 10.63096 | 1690 ft | 93 kts | 280° |
| 2026-05-07 09:10 | 53.82566 | 10.62007 | 1720 ft | 92 kts | 285° |
| 2026-05-07 09:10 | 53.82635 | 10.60904 | 1825 ft | 95 kts | 281° |
| 2026-05-07 09:10 | 53.82706 | 10.59792 | 1857 ft | 98 kts | 282° |
| 2026-05-07 09:10 | 53.82799 | 10.58623 | 1878 ft | 102 kts | 287° |
| 2026-05-07 09:11 | 53.82959 | 10.57437 | 1922 ft | 102 kts | 291° |
| 2026-05-07 09:11 | 53.83121 | 10.56299 | 1940 ft | 100 kts | 293° |
| 2026-05-07 09:11 | 53.83286 | 10.55174 | 2023 ft | 97 kts | 290° |
| 2026-05-07 09:11 | 53.83467 | 10.54087 | 2016 ft | 93 kts | 288° |
| 2026-05-07 09:12 | 53.83618 | 10.52950 | 1947 ft | 99 kts | 283° |
| 2026-05-07 09:12 | 53.83580 | 10.51816 | 1934 ft | 98 kts | 261° |
| 2026-05-07 09:12 | 53.83493 | 10.50616 | 1910 ft | 101 kts | 271° |
| 2026-05-07 09:12 | 53.83536 | 10.49416 | 1765 ft | 104 kts | 272° |
| 2026-05-07 09:13 | 53.83258 | 10.48355 | 1710 ft | 94 kts | 231° |
| 2026-05-07 09:13 | 53.82784 | 10.47599 | 1654 ft | 97 kts | 216° |
| 2026-05-07 09:13 | 53.82218 | 10.47005 | 1687 ft | 93 kts | 207° |
| 2026-05-07 09:13 | 53.81672 | 10.46421 | 1670 ft | 92 kts | 207° |
| 2026-05-07 09:14 | 53.81134 | 10.45890 | 1679 ft | 86 kts | 206° |
| 2026-05-07 09:14 | 53.80620 | 10.45338 | 1753 ft | 93 kts | 217° |
| 2026-05-07 09:14 | 53.80112 | 10.44677 | 1845 ft | 89 kts | 214° |
| 2026-05-07 09:14 | 53.79657 | 10.43943 | 1806 ft | 91 kts | 225° |
| 2026-05-07 09:15 | 53.79216 | 10.43155 | 1743 ft | 91 kts | 223° |
| 2026-05-07 09:15 | 53.78747 | 10.42465 | 1757 ft | 88 kts | 213° |
| 2026-05-07 09:15 | 53.78272 | 10.41851 | 1818 ft | 86 kts | 213° |
| 2026-05-07 09:15 | 53.77838 | 10.41054 | 1843 ft | 96 kts | 229° |
| 2026-05-07 09:16 | 53.77391 | 10.40213 | 1855 ft | 96 kts | 223° |
| 2026-05-07 09:16 | 53.76908 | 10.39442 | 1795 ft | 96 kts | 218° |
| 2026-05-07 09:16 | 53.76397 | 10.38684 | 1781 ft | 98 kts | 216° |
| 2026-05-07 09:16 | 53.75852 | 10.38004 | 1827 ft | 96 kts | 211° |
| 2026-05-07 09:17 | 53.75304 | 10.37377 | 1828 ft | 97 kts | 212° |
| 2026-05-07 09:17 | 53.74730 | 10.36767 | 1754 ft | 96 kts | 206° |
| 2026-05-07 09:17 | 53.74157 | 10.36290 | 1831 ft | 90 kts | 201° |
| 2026-05-07 09:17 | 53.73607 | 10.35821 | 1933 ft | 88 kts | 195° |
| 2026-05-07 09:18 | 53.73021 | 10.35412 | 1947 ft | 93 kts | 198° |
| 2026-05-07 09:18 | 53.72456 | 10.34869 | 2011 ft | 93 kts | 208° |
| 2026-05-07 09:18 | 53.71892 | 10.34356 | 2066 ft | 90 kts | 199° |
| 2026-05-07 09:18 | 53.71302 | 10.33932 | 2070 ft | 95 kts | 200° |
| 2026-05-07 09:19 | 53.70708 | 10.33474 | 2096 ft | 93 kts | 199° |
| 2026-05-07 09:19 | 53.70325 | 10.33159 | 2130 ft | 90 kts | 198° |
| 2026-05-07 09:19 | 53.69550 | 10.32494 | 1907 ft | 109 kts | 204° |
| 2026-05-07 09:19 | 53.69077 | 10.32109 | 1792 ft | 113 kts | 205° |
| 2026-05-07 09:20 | 53.68444 | 10.31772 | 2058 ft | 75 kts | 178° |
| 2026-05-07 09:20 | 53.67899 | 10.31683 | 2135 ft | 84 kts | 186° |
| 2026-05-07 09:20 | 53.67175 | 10.31116 | 2218 ft | 93 kts | 218° |
| 2026-05-07 09:20 | 53.66662 | 10.30464 | 2232 ft | 97 kts | 210° |
| 2026-05-07 09:21 | 53.66258 | 10.30048 | 2195 ft | 102 kts | 203° |
| 2026-05-07 09:21 | 53.65646 | 10.29548 | 2222 ft | 90 kts | 195° |
| 2026-05-07 09:21 | 53.65111 | 10.29124 | 2352 ft | 92 kts | 208° |
| 2026-05-07 09:21 | 53.64471 | 10.28348 | 1984 ft | 120 kts | 221° |
| 2026-05-07 09:22 | 53.63859 | 10.27547 | 1937 ft | 107 kts | 218° |
| 2026-05-07 09:22 | 53.63309 | 10.26810 | 1937 ft | 100 kts | 218° |
| 2026-05-07 09:22 | 53.62771 | 10.26088 | 1968 ft | 97 kts | 219° |
| 2026-05-07 09:22 | 53.62215 | 10.25395 | 1887 ft | 101 kts | 215° |
| 2026-05-07 09:23 | 53.61661 | 10.24719 | 1873 ft | 97 kts | 214° |
| 2026-05-07 09:23 | 53.61099 | 10.24097 | 1798 ft | 99 kts | 213° |
| 2026-05-07 09:23 | 53.60538 | 10.23439 | 1758 ft | 98 kts | 216° |
| 2026-05-07 09:23 | 53.59991 | 10.22735 | 1745 ft | 100 kts | 219° |
| 2026-05-07 09:24 | 53.59432 | 10.21940 | 1586 ft | 104 kts | 213° |
| 2026-05-07 09:24 | 53.58867 | 10.21306 | 1610 ft | 94 kts | 210° |
| 2026-05-07 09:24 | 53.58285 | 10.20774 | 1621 ft | 98 kts | 212° |
| 2026-05-07 09:24 | 53.57710 | 10.20123 | 1669 ft | 102 kts | 217° |
| 2026-05-07 09:25 | 53.57121 | 10.19472 | 1724 ft | 97 kts | 217° |
| 2026-05-07 09:25 | 53.56645 | 10.18620 | 1764 ft | 107 kts | 237° |
| 2026-05-07 09:25 | 53.56344 | 10.17492 | 1753 ft | 105 kts | 261° |
| 2026-05-07 09:25 | 53.56337 | 10.16325 | 1751 ft | 99 kts | 302° |
| 2026-05-07 09:26 | 53.56630 | 10.15253 | 1575 ft | 106 kts | 304° |
| 2026-05-07 09:26 | 53.56985 | 10.14156 | 1439 ft | 105 kts | 310° |
| 2026-05-07 09:26 | 53.57348 | 10.13087 | 1338 ft | 103 kts | 309° |
| 2026-05-07 09:26 | 53.57696 | 10.12072 | 1294 ft | 99 kts | 313° |
| 2026-05-07 09:27 | 53.58038 | 10.11123 | 1337 ft | 92 kts | 309° |
| 2026-05-07 09:27 | 53.58347 | 10.10178 | 1294 ft | 94 kts | 306° |
| 2026-05-07 09:27 | 53.58917 | 10.08234 | 1274 ft | 94 kts | 301° |
| 2026-05-07 09:28 | 53.59181 | 10.07227 | 1158 ft | 93 kts | 298° |
| 2026-05-07 09:28 | 53.59421 | 10.06253 | 1040 ft | 89 kts | 300° |
| 2026-05-07 09:28 | 53.59658 | 10.05250 | 871 ft | 92 kts | 298° |
| 2026-05-07 09:28 | 53.59872 | 10.04254 | 781 ft | 90 kts | 299° |
| 2026-05-07 09:29 | 53.60116 | 10.03321 | 754 ft | 86 kts | 304° |
| 2026-05-07 09:29 | 53.60381 | 10.02443 | 748 ft | 81 kts | 309° |
| 2026-05-07 09:29 | 53.60635 | 10.01627 | 784 ft | 78 kts | 308° |
| 2026-05-07 09:29 | 53.60904 | 10.00840 | 778 ft | 73 kts | 314° |
| 2026-05-07 09:30 | 53.61161 | 10.00152 | 754 ft | 65 kts | 320° |
| 2026-05-07 09:30 | 53.61407 | 9.99593 | 687 ft | 55 kts | 326° |
| 2026-05-07 09:30 | 53.61658 | 9.99163 | 576 ft | 47 kts | 338° |
| 2026-05-07 09:30 | 53.61881 | 9.98858 | 471 ft | 38 kts | 344° |
| 2026-05-07 09:31 | 53.62098 | 9.98660 | 358 ft | 32 kts | 348° |
| 2026-05-07 09:31 | 53.62297 | 9.98529 | 223 ft | 30 kts | 358° |
| 2026-05-07 09:31 | 53.62446 | 9.98468 | 124 ft | 15 kts | 7° |
| 2026-05-07 09:31 | 53.62517 | 9.98461 | 70 ft | 7 kts | 0° |
| 2026-05-07 09:32 | 53.62555 | 9.98461 | 51 ft | 3 kts | 349° |
| 2026-05-07 09:32 | 53.62562 | 9.98458 | 44 ft | 0 kts | 356° |
| 2026-05-07 09:32 | 53.62562 | 9.98457 | 45 ft | 2 kts | 11° |
| 2026-05-07 09:32 | 53.62550 | 9.98459 | 61 ft | 10 kts | 138° |
| 2026-05-07 09:33 | 53.62517 | 9.98595 | 82 ft | 17 kts | 93° |
| 2026-05-07 09:33 | 53.62542 | 9.98829 | 83 ft | 20 kts | 87° |
| 2026-05-07 09:33 | 53.62562 | 9.99018 | 80 ft | 18 kts | 94° |
| 2026-05-07 09:33 | 53.62580 | 9.99199 | 65 ft | 16 kts | 99° |
| 2026-05-07 09:34 | 53.62580 | 9.99302 | 62 ft | 8 kts | 129° |
| 2026-05-07 09:34 | 53.62547 | 9.99375 | 60 ft | 9 kts | 102° |
| 2026-05-07 09:34 | 53.62549 | 9.99486 | 64 ft | 7 kts | 65° |
| 2026-05-07 09:34 | 53.62559 | 9.99497 | 48 ft | 1 kts | 5° |
| 2026-05-07 09:35 | 53.62559 | 9.99495 | 44 ft | 0 kts | 356° |